sensor_id;sensor_type;location;lat;lon;timestamp;P1;durP1;ratioP1;P2;durP2;ratioP2
52041;SDS011;38052;45.944;13.624;2023-02-23T00:01:27;81.70;;;47.50;;
52041;SDS011;38052;45.944;13.624;2023-02-23T00:03:54;77.53;;;46.85;;
52041;SDS011;38052;45.944;13.624;2023-02-23T00:06:21;83.30;;;48.25;;
52041;SDS011;38052;45.944;13.624;2023-02-23T00:08:48;75.55;;;45.05;;
52041;SDS011;38052;45.944;13.624;2023-02-23T00:11:16;72.32;;;45.22;;
52041;SDS011;38052;45.944;13.624;2023-02-23T00:13:43;68.45;;;42.78;;
52041;SDS011;38052;45.944;13.624;2023-02-23T00:21:24;73.85;;;42.35;;
52041;SDS011;38052;45.944;13.624;2023-02-23T00:23:54;71.93;;;42.58;;
52041;SDS011;38052;45.944;13.624;2023-02-23T00:26:22;74.53;;;44.63;;
52041;SDS011;38052;45.944;13.624;2023-02-23T00:28:51;71.10;;;41.90;;
52041;SDS011;38052;45.944;13.624;2023-02-23T00:31:19;77.28;;;43.95;;
52041;SDS011;38052;45.944;13.624;2023-02-23T00:33:50;76.28;;;45.10;;
52041;SDS011;38052;45.944;13.624;2023-02-23T00:36:19;71.78;;;41.97;;
52041;SDS011;38052;45.944;13.624;2023-02-23T00:38:45;71.63;;;42.28;;
52041;SDS011;38052;45.944;13.624;2023-02-23T00:41:13;68.07;;;40.67;;
52041;SDS011;38052;45.944;13.624;2023-02-23T00:44:02;70.03;;;40.83;;
52041;SDS011;38052;45.944;13.624;2023-02-23T00:46:29;73.38;;;41.50;;
52041;SDS011;38052;45.944;13.624;2023-02-23T00:48:56;68.35;;;38.88;;
52041;SDS011;38052;45.944;13.624;2023-02-23T00:51:24;75.22;;;44.28;;
52041;SDS011;38052;45.944;13.624;2023-02-23T00:53:54;71.05;;;40.78;;
52041;SDS011;38052;45.944;13.624;2023-02-23T00:56:21;67.38;;;40.83;;
52041;SDS011;38052;45.944;13.624;2023-02-23T00:58:47;68.63;;;40.03;;
52041;SDS011;38052;45.944;13.624;2023-02-23T01:01:14;73.75;;;43.72;;
52041;SDS011;38052;45.944;13.624;2023-02-23T01:03:40;73.85;;;42.50;;
52041;SDS011;38052;45.944;13.624;2023-02-23T01:06:08;69.95;;;41.08;;
52041;SDS011;38052;45.944;13.624;2023-02-23T01:08:36;70.55;;;41.05;;
52041;SDS011;38052;45.944;13.624;2023-02-23T01:13:33;71.43;;;40.40;;
52041;SDS011;38052;45.944;13.624;2023-02-23T01:16:02;71.00;;;43.22;;
52041;SDS011;38052;45.944;13.624;2023-02-23T01:18:29;77.15;;;44.63;;
52041;SDS011;38052;45.944;13.624;2023-02-23T01:20:55;73.07;;;43.63;;
52041;SDS011;38052;45.944;13.624;2023-02-23T01:23:21;75.20;;;43.47;;
52041;SDS011;38052;45.944;13.624;2023-02-23T01:25:47;67.72;;;42.22;;
52041;SDS011;38052;45.944;13.624;2023-02-23T01:28:14;76.05;;;41.67;;
52041;SDS011;38052;45.944;13.624;2023-02-23T01:30:41;65.95;;;42.95;;
52041;SDS011;38052;45.944;13.624;2023-02-23T01:33:07;73.35;;;42.05;;
52041;SDS011;38052;45.944;13.624;2023-02-23T01:35:34;76.22;;;42.38;;
52041;SDS011;38052;45.944;13.624;2023-02-23T01:38:00;66.22;;;39.55;;
52041;SDS011;38052;45.944;13.624;2023-02-23T01:40:27;76.38;;;40.95;;
52041;SDS011;38052;45.944;13.624;2023-02-23T01:42:58;73.00;;;40.97;;
52041;SDS011;38052;45.944;13.624;2023-02-23T01:45:26;72.38;;;42.08;;
52041;SDS011;38052;45.944;13.624;2023-02-23T01:47:56;75.00;;;42.35;;
52041;SDS011;38052;45.944;13.624;2023-02-23T01:50:25;69.95;;;41.90;;
52041;SDS011;38052;45.944;13.624;2023-02-23T01:52:53;72.15;;;42.75;;
52041;SDS011;38052;45.944;13.624;2023-02-23T01:55:19;73.88;;;43.83;;
52041;SDS011;38052;45.944;13.624;2023-02-23T01:57:49;70.22;;;42.20;;
52041;SDS011;38052;45.944;13.624;2023-02-23T02:00:17;77.78;;;43.58;;
52041;SDS011;38052;45.944;13.624;2023-02-23T02:02:44;71.28;;;40.53;;
52041;SDS011;38052;45.944;13.624;2023-02-23T02:05:13;71.05;;;42.13;;
52041;SDS011;38052;45.944;13.624;2023-02-23T02:07:41;63.35;;;40.35;;
52041;SDS011;38052;45.944;13.624;2023-02-23T02:10:10;70.35;;;40.60;;
52041;SDS011;38052;45.944;13.624;2023-02-23T02:12:40;69.50;;;41.75;;
52041;SDS011;38052;45.944;13.624;2023-02-23T02:25:55;63.72;;;37.10;;
52041;SDS011;38052;45.944;13.624;2023-02-23T02:28:41;68.53;;;40.40;;
52041;SDS011;38052;45.944;13.624;2023-02-23T02:50:13;61.20;;;38.63;;
52041;SDS011;38052;45.944;13.624;2023-02-23T02:52:46;67.57;;;39.22;;
52041;SDS011;38052;45.944;13.624;2023-02-23T02:55:17;64.30;;;38.92;;
52041;SDS011;38052;45.944;13.624;2023-02-23T02:57:48;63.25;;;38.15;;
52041;SDS011;38052;45.944;13.624;2023-02-23T03:00:18;62.83;;;38.28;;
52041;SDS011;38052;45.944;13.624;2023-02-23T03:03:03;65.93;;;37.53;;
52041;SDS011;38052;45.944;13.624;2023-02-23T03:05:49;60.45;;;34.58;;
52041;SDS011;38052;45.944;13.624;2023-02-23T03:08:48;59.38;;;37.72;;
52041;SDS011;38052;45.944;13.624;2023-02-23T03:11:37;54.63;;;36.28;;
52041;SDS011;38052;45.944;13.624;2023-02-23T03:17:17;57.03;;;35.50;;
52041;SDS011;38052;45.944;13.624;2023-02-23T03:20:16;59.75;;;34.40;;
52041;SDS011;38052;45.944;13.624;2023-02-23T03:23:24;58.40;;;35.00;;
52041;SDS011;38052;45.944;13.624;2023-02-23T03:26:08;55.88;;;35.35;;
52041;SDS011;38052;45.944;13.624;2023-02-23T03:29:03;61.67;;;35.13;;
52041;SDS011;38052;45.944;13.624;2023-02-23T03:31:51;58.80;;;34.47;;
52041;SDS011;38052;45.944;13.624;2023-02-23T03:34:50;61.63;;;36.92;;
52041;SDS011;38052;45.944;13.624;2023-02-23T03:37:37;60.42;;;39.78;;
52041;SDS011;38052;45.944;13.624;2023-02-23T03:40:28;66.82;;;40.45;;
52041;SDS011;38052;45.944;13.624;2023-02-23T03:43:16;71.03;;;41.58;;
52041;SDS011;38052;45.944;13.624;2023-02-23T03:46:03;70.75;;;44.85;;
52041;SDS011;38052;45.944;13.624;2023-02-23T03:48:49;71.72;;;43.03;;
52041;SDS011;38052;45.944;13.624;2023-02-23T03:51:34;71.60;;;43.30;;
52041;SDS011;38052;45.944;13.624;2023-02-23T03:54:24;76.72;;;42.20;;
52041;SDS011;38052;45.944;13.624;2023-02-23T03:57:11;67.93;;;42.03;;
52041;SDS011;38052;45.944;13.624;2023-02-23T03:59:59;59.30;;;36.92;;
52041;SDS011;38052;45.944;13.624;2023-02-23T04:02:46;64.45;;;37.70;;
52041;SDS011;38052;45.944;13.624;2023-02-23T04:05:31;61.58;;;37.30;;
52041;SDS011;38052;45.944;13.624;2023-02-23T04:08:18;63.97;;;36.08;;
52041;SDS011;38052;45.944;13.624;2023-02-23T04:11:20;64.43;;;38.13;;
52041;SDS011;38052;45.944;13.624;2023-02-23T04:14:10;57.00;;;34.03;;
52041;SDS011;38052;45.944;13.624;2023-02-23T04:16:40;59.83;;;34.53;;
52041;SDS011;38052;45.944;13.624;2023-02-23T04:19:06;70.18;;;39.50;;
52041;SDS011;38052;45.944;13.624;2023-02-23T04:21:33;60.35;;;37.00;;
52041;SDS011;38052;45.944;13.624;2023-02-23T04:23:59;65.72;;;37.80;;
52041;SDS011;38052;45.944;13.624;2023-02-23T04:26:25;65.35;;;39.20;;
52041;SDS011;38052;45.944;13.624;2023-02-23T04:28:52;66.45;;;40.08;;
52041;SDS011;38052;45.944;13.624;2023-02-23T04:31:18;63.72;;;37.75;;
52041;SDS011;38052;45.944;13.624;2023-02-23T04:33:45;67.78;;;40.97;;
52041;SDS011;38052;45.944;13.624;2023-02-23T04:36:11;72.90;;;42.17;;
52041;SDS011;38052;45.944;13.624;2023-02-23T04:38:37;80.82;;;45.95;;
52041;SDS011;38052;45.944;13.624;2023-02-23T04:41:04;73.88;;;43.08;;
52041;SDS011;38052;45.944;13.624;2023-02-23T04:43:30;77.28;;;45.80;;
52041;SDS011;38052;45.944;13.624;2023-02-23T04:45:57;72.30;;;46.38;;
52041;SDS011;38052;45.944;13.624;2023-02-23T04:48:23;81.40;;;44.58;;
52041;SDS011;38052;45.944;13.624;2023-02-23T04:50:51;73.35;;;43.75;;
52041;SDS011;38052;45.944;13.624;2023-02-23T04:53:17;79.00;;;45.92;;
52041;SDS011;38052;45.944;13.624;2023-02-23T04:55:44;72.38;;;44.13;;
52041;SDS011;38052;45.944;13.624;2023-02-23T04:58:11;79.68;;;45.72;;
52041;SDS011;38052;45.944;13.624;2023-02-23T05:00:38;74.03;;;46.35;;
52041;SDS011;38052;45.944;13.624;2023-02-23T05:03:04;80.18;;;47.13;;
52041;SDS011;38052;45.944;13.624;2023-02-23T05:05:30;76.50;;;46.55;;
52041;SDS011;38052;45.944;13.624;2023-02-23T05:07:56;78.82;;;48.05;;
52041;SDS011;38052;45.944;13.624;2023-02-23T05:10:23;79.43;;;47.55;;
52041;SDS011;38052;45.944;13.624;2023-02-23T05:12:49;76.78;;;49.05;;
52041;SDS011;38052;45.944;13.624;2023-02-23T05:15:15;78.95;;;47.80;;
52041;SDS011;38052;45.944;13.624;2023-02-23T05:17:42;76.53;;;48.50;;
52041;SDS011;38052;45.944;13.624;2023-02-23T05:20:09;84.07;;;48.90;;
52041;SDS011;38052;45.944;13.624;2023-02-23T05:22:36;101.18;;;48.30;;
52041;SDS011;38052;45.944;13.624;2023-02-23T05:25:02;79.95;;;47.13;;
52041;SDS011;38052;45.944;13.624;2023-02-23T05:27:29;84.22;;;48.33;;
52041;SDS011;38052;45.944;13.624;2023-02-23T05:29:56;78.78;;;46.95;;
52041;SDS011;38052;45.944;13.624;2023-02-23T05:32:22;85.70;;;49.30;;
52041;SDS011;38052;45.944;13.624;2023-02-23T05:34:49;86.53;;;50.92;;
52041;SDS011;38052;45.944;13.624;2023-02-23T05:37:15;80.43;;;49.58;;
52041;SDS011;38052;45.944;13.624;2023-02-23T05:39:42;82.97;;;49.70;;
52041;SDS011;38052;45.944;13.624;2023-02-23T05:42:08;69.97;;;41.58;;
52041;SDS011;38052;45.944;13.624;2023-02-23T05:44:35;72.80;;;42.67;;
52041;SDS011;38052;45.944;13.624;2023-02-23T05:47:02;70.70;;;41.55;;
52041;SDS011;38052;45.944;13.624;2023-02-23T05:49:29;72.68;;;42.60;;
52041;SDS011;38052;45.944;13.624;2023-02-23T05:51:55;80.28;;;46.35;;
52041;SDS011;38052;45.944;13.624;2023-02-23T05:54:22;77.40;;;47.47;;
52041;SDS011;38052;45.944;13.624;2023-02-23T05:56:48;91.85;;;50.47;;
52041;SDS011;38052;45.944;13.624;2023-02-23T05:59:15;91.50;;;51.55;;
52041;SDS011;38052;45.944;13.624;2023-02-23T06:01:41;88.20;;;51.88;;
52041;SDS011;38052;45.944;13.624;2023-02-23T06:04:08;86.55;;;51.05;;
52041;SDS011;38052;45.944;13.624;2023-02-23T06:06:34;86.57;;;50.05;;
52041;SDS011;38052;45.944;13.624;2023-02-23T06:09:02;88.93;;;51.22;;
52041;SDS011;38052;45.944;13.624;2023-02-23T06:11:29;85.68;;;53.15;;
52041;SDS011;38052;45.944;13.624;2023-02-23T06:13:58;88.78;;;54.15;;
52041;SDS011;38052;45.944;13.624;2023-02-23T06:16:25;82.75;;;49.47;;
52041;SDS011;38052;45.944;13.624;2023-02-23T06:18:52;80.93;;;47.08;;
52041;SDS011;38052;45.944;13.624;2023-02-23T06:21:18;78.20;;;48.03;;
52041;SDS011;38052;45.944;13.624;2023-02-23T06:23:45;76.00;;;43.60;;
52041;SDS011;38052;45.944;13.624;2023-02-23T06:26:11;72.43;;;43.45;;
52041;SDS011;38052;45.944;13.624;2023-02-23T06:28:37;67.53;;;41.95;;
52041;SDS011;38052;45.944;13.624;2023-02-23T06:31:04;63.97;;;39.83;;
52041;SDS011;38052;45.944;13.624;2023-02-23T06:33:30;71.32;;;43.35;;
52041;SDS011;38052;45.944;13.624;2023-02-23T06:35:57;80.82;;;46.17;;
52041;SDS011;38052;45.944;13.624;2023-02-23T06:38:23;78.28;;;45.58;;
52041;SDS011;38052;45.944;13.624;2023-02-23T06:40:49;79.22;;;45.20;;
52041;SDS011;38052;45.944;13.624;2023-02-23T06:43:15;70.63;;;40.88;;
52041;SDS011;38052;45.944;13.624;2023-02-23T06:45:42;61.38;;;36.40;;
52041;SDS011;38052;45.944;13.624;2023-02-23T06:48:08;65.50;;;38.63;;
52041;SDS011;38052;45.944;13.624;2023-02-23T06:50:34;68.47;;;38.92;;
52041;SDS011;38052;45.944;13.624;2023-02-23T06:53:01;66.22;;;39.58;;
52041;SDS011;38052;45.944;13.624;2023-02-23T06:55:27;71.07;;;42.88;;
52041;SDS011;38052;45.944;13.624;2023-02-23T06:57:54;68.90;;;43.50;;
52041;SDS011;38052;45.944;13.624;2023-02-23T07:00:20;71.22;;;42.08;;
52041;SDS011;38052;45.944;13.624;2023-02-23T07:02:47;73.75;;;44.80;;
52041;SDS011;38052;45.944;13.624;2023-02-23T07:05:13;78.22;;;46.40;;
52041;SDS011;38052;45.944;13.624;2023-02-23T07:07:39;76.78;;;48.08;;
52041;SDS011;38052;45.944;13.624;2023-02-23T07:10:06;81.35;;;46.28;;
52041;SDS011;38052;45.944;13.624;2023-02-23T07:12:32;82.30;;;46.20;;
52041;SDS011;38052;45.944;13.624;2023-02-23T07:14:59;74.75;;;45.78;;
52041;SDS011;38052;45.944;13.624;2023-02-23T07:17:25;73.80;;;44.55;;
52041;SDS011;38052;45.944;13.624;2023-02-23T07:19:52;81.28;;;48.45;;
52041;SDS011;38052;45.944;13.624;2023-02-23T07:22:18;72.55;;;42.20;;
52041;SDS011;38052;45.944;13.624;2023-02-23T07:24:46;75.70;;;41.45;;
52041;SDS011;38052;45.944;13.624;2023-02-23T07:27:12;72.10;;;45.55;;
52041;SDS011;38052;45.944;13.624;2023-02-23T07:29:39;75.22;;;42.97;;
52041;SDS011;38052;45.944;13.624;2023-02-23T07:32:05;75.78;;;43.38;;
52041;SDS011;38052;45.944;13.624;2023-02-23T07:34:31;73.22;;;42.30;;
52041;SDS011;38052;45.944;13.624;2023-02-23T07:36:57;65.85;;;38.63;;
52041;SDS011;38052;45.944;13.624;2023-02-23T07:39:23;62.22;;;38.15;;
52041;SDS011;38052;45.944;13.624;2023-02-23T07:41:51;63.97;;;37.78;;
52041;SDS011;38052;45.944;13.624;2023-02-23T07:44:18;63.90;;;37.95;;
52041;SDS011;38052;45.944;13.624;2023-02-23T07:46:44;60.22;;;36.70;;
52041;SDS011;38052;45.944;13.624;2023-02-23T07:49:11;63.15;;;37.17;;
52041;SDS011;38052;45.944;13.624;2023-02-23T07:51:38;66.80;;;37.95;;
52041;SDS011;38052;45.944;13.624;2023-02-23T07:54:04;65.28;;;36.10;;
52041;SDS011;38052;45.944;13.624;2023-02-23T07:56:31;57.30;;;35.13;;
52041;SDS011;38052;45.944;13.624;2023-02-23T07:58:57;58.40;;;34.13;;
52041;SDS011;38052;45.944;13.624;2023-02-23T08:01:24;59.53;;;35.78;;
52041;SDS011;38052;45.944;13.624;2023-02-23T08:03:50;58.08;;;34.88;;
52041;SDS011;38052;45.944;13.624;2023-02-23T08:06:18;58.50;;;34.28;;
52041;SDS011;38052;45.944;13.624;2023-02-23T08:08:44;63.55;;;35.65;;
52041;SDS011;38052;45.944;13.624;2023-02-23T08:11:10;55.10;;;33.55;;
52041;SDS011;38052;45.944;13.624;2023-02-23T08:13:37;63.40;;;35.50;;
52041;SDS011;38052;45.944;13.624;2023-02-23T08:16:03;59.58;;;34.72;;
52041;SDS011;38052;45.944;13.624;2023-02-23T08:18:29;63.90;;;34.72;;
52041;SDS011;38052;45.944;13.624;2023-02-23T08:21:00;58.30;;;34.63;;
52041;SDS011;38052;45.944;13.624;2023-02-23T08:23:30;56.63;;;31.43;;
52041;SDS011;38052;45.944;13.624;2023-02-23T08:25:57;69.32;;;37.97;;
52041;SDS011;38052;45.944;13.624;2023-02-23T08:28:23;60.85;;;33.83;;
52041;SDS011;38052;45.944;13.624;2023-02-23T08:30:50;55.08;;;33.17;;
52041;SDS011;38052;45.944;13.624;2023-02-23T08:33:17;58.65;;;35.45;;
52041;SDS011;38052;45.944;13.624;2023-02-23T08:35:43;59.15;;;32.40;;
52041;SDS011;38052;45.944;13.624;2023-02-23T08:38:10;56.63;;;33.55;;
52041;SDS011;38052;45.944;13.624;2023-02-23T08:40:36;64.57;;;36.72;;
52041;SDS011;38052;45.944;13.624;2023-02-23T08:43:03;63.70;;;36.58;;
52041;SDS011;38052;45.944;13.624;2023-02-23T08:45:29;66.07;;;37.53;;
52041;SDS011;38052;45.944;13.624;2023-02-23T08:47:56;62.30;;;35.67;;
52041;SDS011;38052;45.944;13.624;2023-02-23T08:50:23;59.55;;;37.90;;
52041;SDS011;38052;45.944;13.624;2023-02-23T08:52:49;60.97;;;39.55;;
52041;SDS011;38052;45.944;13.624;2023-02-23T08:55:15;60.72;;;37.13;;
52041;SDS011;38052;45.944;13.624;2023-02-23T08:57:42;64.65;;;38.45;;
52041;SDS011;38052;45.944;13.624;2023-02-23T09:00:09;64.75;;;37.47;;
52041;SDS011;38052;45.944;13.624;2023-02-23T09:02:40;56.72;;;35.63;;
52041;SDS011;38052;45.944;13.624;2023-02-23T09:05:07;67.47;;;37.17;;
52041;SDS011;38052;45.944;13.624;2023-02-23T09:07:33;58.85;;;37.30;;
52041;SDS011;38052;45.944;13.624;2023-02-23T09:10:00;60.20;;;37.58;;
52041;SDS011;38052;45.944;13.624;2023-02-23T09:12:26;55.13;;;34.83;;
52041;SDS011;38052;45.944;13.624;2023-02-23T09:14:52;62.88;;;36.47;;
52041;SDS011;38052;45.944;13.624;2023-02-23T09:17:19;58.70;;;33.20;;
52041;SDS011;38052;45.944;13.624;2023-02-23T09:19:47;55.78;;;33.53;;
52041;SDS011;38052;45.944;13.624;2023-02-23T09:22:13;55.83;;;35.17;;
52041;SDS011;38052;45.944;13.624;2023-02-23T09:24:39;56.05;;;34.30;;
52041;SDS011;38052;45.944;13.624;2023-02-23T09:27:05;52.25;;;35.47;;
52041;SDS011;38052;45.944;13.624;2023-02-23T09:29:32;67.40;;;38.08;;
52041;SDS011;38052;45.944;13.624;2023-02-23T09:32:00;62.22;;;36.25;;
52041;SDS011;38052;45.944;13.624;2023-02-23T09:34:27;59.92;;;37.75;;
52041;SDS011;38052;45.944;13.624;2023-02-23T09:36:54;59.58;;;35.80;;
52041;SDS011;38052;45.944;13.624;2023-02-23T09:39:21;66.10;;;38.40;;
52041;SDS011;38052;45.944;13.624;2023-02-23T09:41:59;64.45;;;36.63;;
52041;SDS011;38052;45.944;13.624;2023-02-23T09:49:31;61.00;;;34.33;;
52041;SDS011;38052;45.944;13.624;2023-02-23T09:51:59;69.40;;;36.00;;
52041;SDS011;38052;45.944;13.624;2023-02-23T09:54:31;65.40;;;35.95;;
52041;SDS011;38052;45.944;13.624;2023-02-23T09:56:59;57.15;;;33.88;;
52041;SDS011;38052;45.944;13.624;2023-02-23T09:59:27;68.30;;;34.53;;
52041;SDS011;38052;45.944;13.624;2023-02-23T10:04:44;68.60;;;35.35;;
52041;SDS011;38052;45.944;13.624;2023-02-23T10:22:52;60.97;;;33.95;;
52041;SDS011;38052;45.944;13.624;2023-02-23T10:25:23;69.90;;;36.88;;
52041;SDS011;38052;45.944;13.624;2023-02-23T10:32:51;61.00;;;33.40;;
52041;SDS011;38052;45.944;13.624;2023-02-23T10:35:19;57.90;;;35.60;;
52041;SDS011;38052;45.944;13.624;2023-02-23T10:37:46;60.13;;;32.97;;
52041;SDS011;38052;45.944;13.624;2023-02-23T10:40:17;61.75;;;36.15;;
52041;SDS011;38052;45.944;13.624;2023-02-23T10:42:45;59.38;;;32.67;;
52041;SDS011;38052;45.944;13.624;2023-02-23T10:45:12;64.70;;;34.58;;
52041;SDS011;38052;45.944;13.624;2023-02-23T10:47:42;55.83;;;34.00;;
52041;SDS011;38052;45.944;13.624;2023-02-23T10:50:09;57.17;;;34.38;;
52041;SDS011;38052;45.944;13.624;2023-02-23T10:52:40;62.38;;;34.65;;
52041;SDS011;38052;45.944;13.624;2023-02-23T10:55:18;55.80;;;33.22;;
52041;SDS011;38052;45.944;13.624;2023-02-23T10:57:47;64.75;;;35.97;;
52041;SDS011;38052;45.944;13.624;2023-02-23T11:02:42;60.90;;;34.22;;
52041;SDS011;38052;45.944;13.624;2023-02-23T11:05:26;55.60;;;35.78;;
52041;SDS011;38052;45.944;13.624;2023-02-23T11:08:07;56.17;;;35.63;;
52041;SDS011;38052;45.944;13.624;2023-02-23T11:13:00;53.42;;;33.40;;
52041;SDS011;38052;45.944;13.624;2023-02-23T11:15:28;56.47;;;34.90;;
52041;SDS011;38052;45.944;13.624;2023-02-23T11:17:56;53.25;;;34.63;;
52041;SDS011;38052;45.944;13.624;2023-02-23T11:22:55;52.72;;;34.00;;
52041;SDS011;38052;45.944;13.624;2023-02-23T11:25:27;57.28;;;36.58;;
52041;SDS011;38052;45.944;13.624;2023-02-23T11:27:53;55.00;;;34.30;;
52041;SDS011;38052;45.944;13.624;2023-02-23T11:30:21;54.22;;;34.80;;
52041;SDS011;38052;45.944;13.624;2023-02-23T11:32:50;65.25;;;33.55;;
52041;SDS011;38052;45.944;13.624;2023-02-23T11:37:46;55.80;;;36.83;;
52041;SDS011;38052;45.944;13.624;2023-02-23T11:45:21;61.85;;;37.50;;
52041;SDS011;38052;45.944;13.624;2023-02-23T11:47:51;57.00;;;35.70;;
52041;SDS011;38052;45.944;13.624;2023-02-23T11:50:26;58.10;;;36.13;;
52041;SDS011;38052;45.944;13.624;2023-02-23T11:53:01;54.55;;;35.40;;
52041;SDS011;38052;45.944;13.624;2023-02-23T11:55:28;55.67;;;34.05;;
52041;SDS011;38052;45.944;13.624;2023-02-23T12:00:41;51.45;;;36.03;;
52041;SDS011;38052;45.944;13.624;2023-02-23T12:03:11;49.15;;;33.65;;
52041;SDS011;38052;45.944;13.624;2023-02-23T12:05:41;52.35;;;36.20;;
52041;SDS011;38052;45.944;13.624;2023-02-23T12:08:16;55.83;;;35.80;;
52041;SDS011;38052;45.944;13.624;2023-02-23T12:10:48;54.10;;;35.20;;
52041;SDS011;38052;45.944;13.624;2023-02-23T12:13:25;50.70;;;36.28;;
52041;SDS011;38052;45.944;13.624;2023-02-23T12:15:53;52.88;;;35.30;;
52041;SDS011;38052;45.944;13.624;2023-02-23T12:20:59;49.85;;;34.38;;
52041;SDS011;38052;45.944;13.624;2023-02-23T12:23:29;49.65;;;34.78;;
52041;SDS011;38052;45.944;13.624;2023-02-23T12:26:00;48.90;;;33.75;;
52041;SDS011;38052;45.944;13.624;2023-02-23T12:31:00;50.35;;;33.30;;
52041;SDS011;38052;45.944;13.624;2023-02-23T12:33:31;56.55;;;33.95;;
52041;SDS011;38052;45.944;13.624;2023-02-23T12:38:38;55.30;;;34.38;;
52041;SDS011;38052;45.944;13.624;2023-02-23T12:41:10;51.92;;;34.03;;
52041;SDS011;38052;45.944;13.624;2023-02-23T12:43:51;48.90;;;33.30;;
52041;SDS011;38052;45.944;13.624;2023-02-23T12:46:29;49.92;;;34.00;;
52041;SDS011;38052;45.944;13.624;2023-02-23T12:51:32;50.20;;;35.17;;
52041;SDS011;38052;45.944;13.624;2023-02-23T12:53:59;55.35;;;34.20;;
52041;SDS011;38052;45.944;13.624;2023-02-23T12:56:33;52.85;;;34.70;;
52041;SDS011;38052;45.944;13.624;2023-02-23T13:09:29;61.40;;;34.83;;
52041;SDS011;38052;45.944;13.624;2023-02-23T13:14:28;57.20;;;37.95;;
52041;SDS011;38052;45.944;13.624;2023-02-23T13:17:01;62.03;;;38.15;;
52041;SDS011;38052;45.944;13.624;2023-02-23T13:19:32;55.75;;;36.58;;
52041;SDS011;38052;45.944;13.624;2023-02-23T13:22:06;54.55;;;36.78;;
52041;SDS011;38052;45.944;13.624;2023-02-23T13:24:36;61.60;;;37.97;;
52041;SDS011;38052;45.944;13.624;2023-02-23T13:27:15;58.85;;;37.95;;
52041;SDS011;38052;45.944;13.624;2023-02-23T13:29:46;57.75;;;37.83;;
52041;SDS011;38052;45.944;13.624;2023-02-23T13:32:15;59.43;;;40.07;;
52041;SDS011;38052;45.944;13.624;2023-02-23T13:37:18;62.13;;;38.22;;
52041;SDS011;38052;45.944;13.624;2023-02-23T13:45:00;57.03;;;39.40;;
52041;SDS011;38052;45.944;13.624;2023-02-23T13:50:39;55.72;;;39.90;;
52041;SDS011;38052;45.944;13.624;2023-02-23T13:55:57;60.95;;;40.88;;
52041;SDS011;38052;45.944;13.624;2023-02-23T13:58:28;62.30;;;41.15;;
52041;SDS011;38052;45.944;13.624;2023-02-23T14:01:37;62.20;;;42.42;;
52041;SDS011;38052;45.944;13.624;2023-02-23T14:03:54;57.67;;;38.25;;
52041;SDS011;38052;45.944;13.624;2023-02-23T14:06:21;63.65;;;40.10;;
52041;SDS011;38052;45.944;13.624;2023-02-23T14:08:50;71.75;;;42.80;;
52041;SDS011;38052;45.944;13.624;2023-02-23T14:14:01;60.15;;;41.20;;
52041;SDS011;38052;45.944;13.624;2023-02-23T14:16:28;61.10;;;41.95;;
52041;SDS011;38052;45.944;13.624;2023-02-23T14:21:27;68.35;;;42.80;;
52041;SDS011;38052;45.944;13.624;2023-02-23T14:24:10;65.18;;;42.67;;
52041;SDS011;38052;45.944;13.624;2023-02-23T14:26:44;65.22;;;43.58;;
52041;SDS011;38052;45.944;13.624;2023-02-23T14:31:57;59.72;;;41.55;;
52041;SDS011;38052;45.944;13.624;2023-02-23T14:34:40;58.95;;;39.78;;
52041;SDS011;38052;45.944;13.624;2023-02-23T14:37:27;60.08;;;40.60;;
52041;SDS011;38052;45.944;13.624;2023-02-23T14:39:55;58.42;;;41.33;;
52041;SDS011;38052;45.944;13.624;2023-02-23T14:42:25;64.03;;;40.13;;
52041;SDS011;38052;45.944;13.624;2023-02-23T14:44:53;59.55;;;39.00;;
52041;SDS011;38052;45.944;13.624;2023-02-23T14:47:20;57.45;;;36.97;;
52041;SDS011;38052;45.944;13.624;2023-02-23T14:49:48;59.85;;;38.83;;
52041;SDS011;38052;45.944;13.624;2023-02-23T14:54:51;54.83;;;37.97;;
52041;SDS011;38052;45.944;13.624;2023-02-23T14:57:21;59.08;;;40.05;;
52041;SDS011;38052;45.944;13.624;2023-02-23T15:00:11;61.42;;;40.13;;
52041;SDS011;38052;45.944;13.624;2023-02-23T15:02:37;59.30;;;38.53;;
52041;SDS011;38052;45.944;13.624;2023-02-23T15:05:14;57.70;;;39.10;;
52041;SDS011;38052;45.944;13.624;2023-02-23T15:07:40;52.58;;;36.25;;
52041;SDS011;38052;45.944;13.624;2023-02-23T15:10:08;59.08;;;39.05;;
52041;SDS011;38052;45.944;13.624;2023-02-23T15:12:36;70.43;;;43.97;;
52041;SDS011;38052;45.944;13.624;2023-02-23T15:15:06;65.63;;;45.90;;
52041;SDS011;38052;45.944;13.624;2023-02-23T15:17:38;69.15;;;47.10;;
52041;SDS011;38052;45.944;13.624;2023-02-23T15:20:07;77.88;;;49.55;;
52041;SDS011;38052;45.944;13.624;2023-02-23T15:22:36;80.23;;;49.37;;
52041;SDS011;38052;45.944;13.624;2023-02-23T15:25:10;74.57;;;50.25;;
52041;SDS011;38052;45.944;13.624;2023-02-23T15:27:39;82.10;;;49.33;;
52041;SDS011;38052;45.944;13.624;2023-02-23T15:30:28;75.97;;;49.17;;
52041;SDS011;38052;45.944;13.624;2023-02-23T15:32:59;71.68;;;48.13;;
52041;SDS011;38052;45.944;13.624;2023-02-23T15:35:25;76.30;;;49.28;;
52041;SDS011;38052;45.944;13.624;2023-02-23T15:37:52;77.45;;;49.20;;
52041;SDS011;38052;45.944;13.624;2023-02-23T15:40:20;76.25;;;48.05;;
52041;SDS011;38052;45.944;13.624;2023-02-23T15:42:48;79.40;;;51.83;;
52041;SDS011;38052;45.944;13.624;2023-02-23T15:45:18;76.00;;;47.50;;
52041;SDS011;38052;45.944;13.624;2023-02-23T15:47:46;81.80;;;47.05;;
52041;SDS011;38052;45.944;13.624;2023-02-23T15:52:43;75.03;;;49.05;;
52041;SDS011;38052;45.944;13.624;2023-02-23T15:55:12;78.25;;;50.78;;
52041;SDS011;38052;45.944;13.624;2023-02-23T15:57:48;58.42;;;39.90;;
52041;SDS011;38052;45.944;13.624;2023-02-23T16:00:18;52.60;;;37.00;;
52041;SDS011;38052;45.944;13.624;2023-02-23T16:02:47;50.85;;;34.90;;
52041;SDS011;38052;45.944;13.624;2023-02-23T16:05:18;44.13;;;30.85;;
52041;SDS011;38052;45.944;13.624;2023-02-23T16:07:45;41.38;;;29.38;;
52041;SDS011;38052;45.944;13.624;2023-02-23T16:12:43;40.20;;;28.48;;
52041;SDS011;38052;45.944;13.624;2023-02-23T16:15:34;44.38;;;31.00;;
52041;SDS011;38052;45.944;13.624;2023-02-23T16:18:02;38.08;;;28.02;;
52041;SDS011;38052;45.944;13.624;2023-02-23T16:22:58;47.70;;;29.60;;
52041;SDS011;38052;45.944;13.624;2023-02-23T16:25:26;46.22;;;29.00;;
52041;SDS011;38052;45.944;13.624;2023-02-23T16:28:00;47.65;;;31.38;;
52041;SDS011;38052;45.944;13.624;2023-02-23T16:30:43;45.17;;;30.00;;
52041;SDS011;38052;45.944;13.624;2023-02-23T16:35:46;40.85;;;31.10;;
52041;SDS011;38052;45.944;13.624;2023-02-23T16:38:14;42.72;;;31.13;;
52041;SDS011;38052;45.944;13.624;2023-02-23T16:40:45;42.17;;;30.20;;
52041;SDS011;38052;45.944;13.624;2023-02-23T16:43:13;40.95;;;30.42;;
52041;SDS011;38052;45.944;13.624;2023-02-23T16:45:40;39.47;;;28.70;;
52041;SDS011;38052;45.944;13.624;2023-02-23T16:48:10;37.55;;;28.60;;
52041;SDS011;38052;45.944;13.624;2023-02-23T16:50:38;45.47;;;30.77;;